createdAt,value
2022-10-17T00:00:47.980Z,23.15
2022-10-17T00:03:14.545Z,21.52
2022-10-17T00:05:43.029Z,22.73
2022-10-17T00:08:11.489Z,23.20
2022-10-17T00:10:38.505Z,19.57
2022-10-17T00:13:05.701Z,21.17
2022-10-17T00:15:33.117Z,20.55
2022-10-17T00:18:00.176Z,20.88
2022-10-17T00:20:26.736Z,20.85
2022-10-17T00:22:53.474Z,21.93
2022-10-17T00:25:20.189Z,20.95
2022-10-17T00:27:46.558Z,20.35
2022-10-17T00:30:15.742Z,19.77
2022-10-17T00:32:42.258Z,20.13
2022-10-17T00:35:09.465Z,20.63
2022-10-17T00:37:36.159Z,20.40
2022-10-17T00:40:03.885Z,18.70
2022-10-17T00:42:30.594Z,21.70
2022-10-17T00:45:13.854Z,20.30
2022-10-17T00:47:41.915Z,20.53
2022-10-17T00:50:09.593Z,19.40
2022-10-17T00:52:36.302Z,20.98
2022-10-17T00:55:07.088Z,19.25
2022-10-17T00:57:33.865Z,22.27
2022-10-17T01:00:06.585Z,19.87
2022-10-17T01:02:33.101Z,19.40
2022-10-17T01:04:59.991Z,20.88
2022-10-17T01:07:33.177Z,19.85
2022-10-17T01:10:05.175Z,22.88
2022-10-17T01:12:40.371Z,23.13
2022-10-17T01:15:14.093Z,21.98
2022-10-17T01:17:46.268Z,22.00
2022-10-17T01:20:12.593Z,21.27
2022-10-17T01:22:44.824Z,22.40
2022-10-17T01:25:52.518Z,24.80
2022-10-17T01:28:40.276Z,20.95
2022-10-17T01:31:12.875Z,21.98
2022-10-17T01:33:45.187Z,20.92
2022-10-17T01:36:17.225Z,22.52
2022-10-17T01:38:53.023Z,20.10
2022-10-17T01:41:35.077Z,21.90
2022-10-17T01:44:08.773Z,20.75
2022-10-17T01:46:49.506Z,21.27
2022-10-17T01:49:21.725Z,20.33
2022-10-17T01:52:02.673Z,24.50
2022-10-17T01:54:47.255Z,21.83
2022-10-17T01:57:35.775Z,23.27
2022-10-17T02:00:08.972Z,20.90
2022-10-17T02:02:36.767Z,20.98
2022-10-17T02:05:04.479Z,22.10
2022-10-17T02:07:31.129Z,21.13
2022-10-17T02:09:57.694Z,22.63
2022-10-17T02:12:42.879Z,23.58
2022-10-17T02:15:29.494Z,21.70
2022-10-17T02:18:18.387Z,21.57
2022-10-17T02:20:59.706Z,24.00
2022-10-17T02:23:34.816Z,23.48
2022-10-17T02:26:15.226Z,22.38
2022-10-17T02:28:52.065Z,23.23
2022-10-17T02:31:30.876Z,24.97
2022-10-17T02:34:16.182Z,22.60
2022-10-17T02:36:49.973Z,21.35
2022-10-17T02:39:18.544Z,22.73
2022-10-17T02:41:47.869Z,24.73
2022-10-17T02:44:14.294Z,24.53
2022-10-17T02:46:42.679Z,25.08
2022-10-17T02:49:20.255Z,24.63
2022-10-17T02:52:16.306Z,22.40
2022-10-17T02:54:47.791Z,22.73
2022-10-17T02:57:19.252Z,20.20
2022-10-17T02:59:47.012Z,20.80
2022-10-17T03:02:13.421Z,21.45
2022-10-17T03:04:43.948Z,20.35
2022-10-17T03:07:10.361Z,21.58
2022-10-17T03:09:36.900Z,22.77
2022-10-17T03:12:03.776Z,19.00
2022-10-17T03:14:30.213Z,20.83
2022-10-17T03:16:56.606Z,22.15
2022-10-17T03:19:23.241Z,20.48
2022-10-17T03:21:49.657Z,20.00
2022-10-17T03:24:16.043Z,17.55
2022-10-17T03:26:42.467Z,18.30
2022-10-17T03:29:08.921Z,19.80
2022-10-17T03:31:36.144Z,18.10
2022-10-17T03:34:02.940Z,19.97
2022-10-17T03:36:29.407Z,18.33
2022-10-17T03:38:55.972Z,18.50
2022-10-17T03:41:22.363Z,16.83
2022-10-17T03:43:48.813Z,19.23
2022-10-17T03:46:15.288Z,17.70
2022-10-17T03:48:41.700Z,20.80
2022-10-17T03:51:09.515Z,20.38
2022-10-17T03:53:35.924Z,18.85
2022-10-17T03:56:15.526Z,16.95
2022-10-17T03:58:42.550Z,16.47
2022-10-17T04:01:11.413Z,18.13
2022-10-17T04:03:38.096Z,17.88
2022-10-17T04:06:05.560Z,23.23
2022-10-17T04:08:33.108Z,17.23
2022-10-17T04:11:05.011Z,21.33
2022-10-17T04:13:32.161Z,19.77
2022-10-17T04:16:04.980Z,19.08
2022-10-17T04:18:32.013Z,19.48
2022-10-17T04:20:58.398Z,18.98
2022-10-17T04:23:24.783Z,17.53
2022-10-17T04:25:56.290Z,16.77
2022-10-17T04:28:23.131Z,19.65
2022-10-17T04:31:03.510Z,16.70
2022-10-17T04:33:31.861Z,21.50
2022-10-17T04:35:58.213Z,18.83
2022-10-17T04:38:27.753Z,17.73
2022-10-17T04:40:58.083Z,15.75
2022-10-17T04:43:24.571Z,16.80
2022-10-17T04:45:50.959Z,16.70
2022-10-17T04:48:17.319Z,16.50
2022-10-17T04:50:53.881Z,16.23
2022-10-17T04:53:20.421Z,17.02
2022-10-17T04:55:46.864Z,16.42
2022-10-17T04:58:13.339Z,16.02
2022-10-17T05:00:39.880Z,17.83
2022-10-17T05:03:06.447Z,16.60
2022-10-17T05:05:32.957Z,16.42
2022-10-17T05:07:59.442Z,16.38
2022-10-17T05:10:25.898Z,17.30
2022-10-17T05:12:53.119Z,16.27
2022-10-17T05:15:19.544Z,16.52
2022-10-17T05:17:45.931Z,15.18
2022-10-17T05:20:12.372Z,18.85
2022-10-17T05:22:41.279Z,17.98
2022-10-17T05:25:08.927Z,16.10
2022-10-17T05:27:35.318Z,18.80
2022-10-17T05:30:01.734Z,17.60
2022-10-17T05:32:28.398Z,18.27
2022-10-17T05:34:55.015Z,16.13
2022-10-17T05:37:21.451Z,20.13
2022-10-17T05:39:50.696Z,21.58
2022-10-17T05:42:18.081Z,17.73
2022-10-17T05:44:44.454Z,21.17
2022-10-17T05:47:10.903Z,18.70
2022-10-17T05:49:47.376Z,17.60
2022-10-17T05:52:17.964Z,17.75
2022-10-17T05:54:44.392Z,24.00
2022-10-17T05:57:11.239Z,20.05
2022-10-17T05:59:37.640Z,20.85
2022-10-17T06:02:04.237Z,21.63
2022-10-17T06:04:30.700Z,18.60
2022-10-17T06:06:57.149Z,18.02
2022-10-17T06:09:24.096Z,18.33
2022-10-17T06:11:50.499Z,18.55
2022-10-17T06:14:16.927Z,19.40
2022-10-17T06:16:43.342Z,18.77
2022-10-17T06:19:09.794Z,17.20
2022-10-17T06:21:36.196Z,18.08
2022-10-17T06:24:02.596Z,18.33
2022-10-17T06:26:29.152Z,19.17
2022-10-17T06:28:55.724Z,17.23
2022-10-17T06:31:22.203Z,19.65
2022-10-17T06:33:48.622Z,19.73
2022-10-17T06:36:15.333Z,17.60
2022-10-17T06:38:41.834Z,19.10
2022-10-17T06:41:16.548Z,18.27
2022-10-17T06:43:44.014Z,17.55
2022-10-17T06:46:10.482Z,20.33
2022-10-17T06:48:36.976Z,21.13
2022-10-17T06:51:04.909Z,17.97
2022-10-17T06:53:33.685Z,18.17
2022-10-17T06:56:00.666Z,17.83
2022-10-17T06:58:28.528Z,20.33
2022-10-17T07:01:02.187Z,19.00
2022-10-17T07:03:29.329Z,18.30
2022-10-17T07:05:56.263Z,19.27
2022-10-17T07:08:23.475Z,20.63
2022-10-17T07:10:50.852Z,17.95
2022-10-17T07:13:18.416Z,21.13
2022-10-17T07:15:45.044Z,24.67
2022-10-17T07:18:11.535Z,24.42
2022-10-17T07:20:38.127Z,27.77
2022-10-17T07:23:04.659Z,25.85
2022-10-17T07:25:31.175Z,24.63
2022-10-17T07:27:58.476Z,25.63
2022-10-17T07:30:25.367Z,21.48
2022-10-17T07:32:54.579Z,24.40
2022-10-17T07:35:21.270Z,23.13
2022-10-17T07:37:47.697Z,24.52
2022-10-17T07:40:14.071Z,29.60
2022-10-17T07:45:11.799Z,29.02
2022-10-17T07:47:38.180Z,25.25
2022-10-17T07:50:05.791Z,27.42
2022-10-17T07:52:32.636Z,27.53
2022-10-17T07:54:59.208Z,26.05
2022-10-17T07:57:25.989Z,29.30
2022-10-17T07:59:52.396Z,28.63
2022-10-17T08:02:23.058Z,26.80
2022-10-17T08:04:50.079Z,29.57
2022-10-17T08:07:24.146Z,27.50
2022-10-17T08:09:53.473Z,26.80
2022-10-17T08:12:20.057Z,26.95
2022-10-17T08:14:46.543Z,33.13
2022-10-17T08:17:12.985Z,33.33
2022-10-17T08:19:40.290Z,35.80
2022-10-17T08:22:07.525Z,32.90
2022-10-17T08:24:34.238Z,35.85
2022-10-17T08:27:00.937Z,36.17
2022-10-17T08:29:27.839Z,29.83
2022-10-17T08:31:58.685Z,33.75
2022-10-17T08:34:27.960Z,41.45
2022-10-17T08:36:54.471Z,39.50
2022-10-17T08:39:21.023Z,46.08
2022-10-17T08:42:00.513Z,36.60
2022-10-17T08:44:36.500Z,37.17
2022-10-17T08:47:11.388Z,41.28
2022-10-17T08:49:45.460Z,42.13
2022-10-17T08:52:20.795Z,47.22
2022-10-17T08:54:48.780Z,52.97
2022-10-17T08:57:16.875Z,49.65
2022-10-17T08:59:44.896Z,46.47
2022-10-17T09:02:48.935Z,47.15
2022-10-17T09:05:28.224Z,42.40
2022-10-17T09:08:12.718Z,43.17
2022-10-17T09:10:45.292Z,43.88
2022-10-17T09:13:31.988Z,47.45
2022-10-17T09:16:16.662Z,39.13
2022-10-17T09:18:47.701Z,38.42
2022-10-17T09:21:23.295Z,35.60
2022-10-17T09:23:59.659Z,40.53
2022-10-17T09:26:35.822Z,34.10
2022-10-17T09:29:02.366Z,32.55
2022-10-17T09:31:42.506Z,33.78
2022-10-17T09:34:11.010Z,30.13
2022-10-17T09:36:40.490Z,32.83
2022-10-17T09:39:18.438Z,30.67
2022-10-17T09:41:54.077Z,28.58
2022-10-17T09:44:30.423Z,30.65
2022-10-17T09:47:18.415Z,26.27
2022-10-17T09:49:47.038Z,24.90
2022-10-17T09:52:27.091Z,27.13
2022-10-17T09:54:59.869Z,25.33
2022-10-17T09:57:26.344Z,23.40
2022-10-17T09:59:57.665Z,24.83
2022-10-17T10:02:25.881Z,25.15
2022-10-17T10:05:03.606Z,23.17
2022-10-17T10:07:40.346Z,25.92
2022-10-17T10:10:23.311Z,25.73
2022-10-17T10:13:14.435Z,24.67
2022-10-17T10:15:43.620Z,22.27
2022-10-17T10:18:25.093Z,23.02
2022-10-17T10:21:05.944Z,26.05
2022-10-17T10:23:33.033Z,25.67
2022-10-17T10:26:04.051Z,21.80
2022-10-17T10:28:36.380Z,22.92
2022-10-17T10:31:08.671Z,21.52
2022-10-17T10:33:41.771Z,21.55
2022-10-17T10:36:08.886Z,19.50
2022-10-17T10:38:37.970Z,22.90
2022-10-17T10:41:07.261Z,23.42
2022-10-17T10:43:49.187Z,22.98
2022-10-17T10:46:20.067Z,25.40
2022-10-17T10:49:00.640Z,25.80
2022-10-17T10:51:40.455Z,23.27
2022-10-17T10:54:28.069Z,22.88
2022-10-17T10:56:58.071Z,22.52
2022-10-17T10:59:37.363Z,25.75
2022-10-17T11:02:31.084Z,24.38
2022-10-17T11:05:04.268Z,23.17
2022-10-17T11:07:42.087Z,22.88
2022-10-17T11:10:27.226Z,21.42
2022-10-17T11:13:08.571Z,22.77
2022-10-17T11:15:47.346Z,21.65
2022-10-17T11:18:32.367Z,21.90
2022-10-17T11:21:19.018Z,21.58
2022-10-17T11:23:56.348Z,21.05
2022-10-17T11:26:33.427Z,20.13
2022-10-17T11:29:03.835Z,23.40
2022-10-17T11:31:41.572Z,20.47
2022-10-17T11:34:20.100Z,21.13
2022-10-17T11:36:50.441Z,23.10
2022-10-17T11:39:22.764Z,19.88
2022-10-17T11:42:10.701Z,22.00
2022-10-17T11:44:39.613Z,19.17
2022-10-17T11:47:22.103Z,17.75
2022-10-17T11:53:31.197Z,17.38
2022-10-17T11:56:00.948Z,19.15
2022-10-17T11:59:06.087Z,15.63
2022-10-17T12:01:47.480Z,14.40
2022-10-17T12:04:37.840Z,15.32
2022-10-17T12:07:10.135Z,15.27
2022-10-17T12:09:51.784Z,17.27
2022-10-17T12:12:33.562Z,18.20
2022-10-17T12:15:21.919Z,17.83
2022-10-17T12:18:02.312Z,19.00
2022-10-17T12:20:28.712Z,20.95
2022-10-17T12:23:04.932Z,20.92
2022-10-17T12:25:34.232Z,20.67
2022-10-17T12:28:26.227Z,25.02
2022-10-17T12:31:01.985Z,24.70
2022-10-17T12:33:38.925Z,21.33
2022-10-17T12:36:17.548Z,21.95
2022-10-17T12:39:11.525Z,20.90
2022-10-17T12:41:37.942Z,21.50
2022-10-17T12:44:13.325Z,22.92
2022-10-17T12:46:45.696Z,20.45
2022-10-17T12:49:41.516Z,22.73
2022-10-17T12:52:26.449Z,22.10
2022-10-17T12:55:13.388Z,21.30
2022-10-17T12:57:53.554Z,21.58
2022-10-17T13:00:27.251Z,21.90
2022-10-17T13:03:01.912Z,20.25
2022-10-17T13:05:33.974Z,26.60
2022-10-17T13:08:05.891Z,19.02
2022-10-17T13:10:35.895Z,21.52
2022-10-17T13:13:16.840Z,18.92
2022-10-17T13:15:51.233Z,17.85
2022-10-17T13:18:26.445Z,18.83
2022-10-17T13:21:04.022Z,21.13
2022-10-17T13:23:33.579Z,19.38
2022-10-17T13:26:15.148Z,19.63
2022-10-17T13:28:43.446Z,20.63
2022-10-17T13:31:31.917Z,20.93
2022-10-17T13:34:01.739Z,21.27
2022-10-17T13:36:29.577Z,20.52
2022-10-17T13:38:59.129Z,21.02
2022-10-17T13:41:37.086Z,20.45
2022-10-17T13:44:11.934Z,19.53
2022-10-17T13:46:39.932Z,22.27
2022-10-17T13:49:34.414Z,20.50
2022-10-17T13:52:03.791Z,17.70
2022-10-17T13:54:40.265Z,19.98
2022-10-17T13:57:24.942Z,19.53
2022-10-17T13:59:59.827Z,18.08
2022-10-17T14:02:31.704Z,18.85
2022-10-17T14:05:20.168Z,18.02
2022-10-17T14:08:11.455Z,22.42
2022-10-17T14:10:41.120Z,17.53
2022-10-17T14:13:19.555Z,16.90
2022-10-17T14:15:46.625Z,18.05
2022-10-17T14:18:23.710Z,16.20
2022-10-17T14:23:43.242Z,16.20
2022-10-17T14:26:14.237Z,16.65
2022-10-17T14:28:46.085Z,18.65
2022-10-17T14:31:21.840Z,20.65
2022-10-17T14:33:51.176Z,15.57
2022-10-17T14:36:19.568Z,17.53
2022-10-17T14:38:49.888Z,21.95
2022-10-17T14:41:43.473Z,17.67
2022-10-17T14:44:24.183Z,21.65
2022-10-17T14:46:54.673Z,17.40
2022-10-17T14:49:51.400Z,16.90
2022-10-17T14:52:28.523Z,18.90
2022-10-17T14:54:56.531Z,17.58
2022-10-17T14:57:28.328Z,16.65
2022-10-17T14:59:56.319Z,16.63
2022-10-17T15:02:27.822Z,15.57
2022-10-17T15:04:54.921Z,15.00
2022-10-17T15:07:21.799Z,15.82
2022-10-17T15:09:51.579Z,18.77
2022-10-17T15:12:23.655Z,16.70
2022-10-17T15:14:50.368Z,15.53
2022-10-17T15:17:25.902Z,16.77
2022-10-17T15:19:52.567Z,16.80
2022-10-17T15:22:18.965Z,16.67
2022-10-17T15:24:46.025Z,15.98
2022-10-17T15:27:23.923Z,18.17
2022-10-17T15:29:50.958Z,17.30
2022-10-17T15:32:17.611Z,18.55
2022-10-17T15:34:44.503Z,18.02
2022-10-17T15:37:24.010Z,19.90
2022-10-17T15:39:55.097Z,20.57
2022-10-17T15:42:30.592Z,17.63
2022-10-17T15:44:57.970Z,19.60
2022-10-17T15:47:26.351Z,20.35
2022-10-17T15:49:53.701Z,16.80
2022-10-17T15:52:20.700Z,18.60
2022-10-17T15:54:47.372Z,16.65
2022-10-17T15:57:18.940Z,16.52
2022-10-17T15:59:46.754Z,20.00
2022-10-17T16:02:14.846Z,17.83
2022-10-17T16:04:41.609Z,15.87
2022-10-17T16:07:08.057Z,17.20
2022-10-17T16:09:35.255Z,15.98
2022-10-17T16:12:02.257Z,16.63
2022-10-17T16:14:28.700Z,13.88
2022-10-17T16:16:55.170Z,18.57
2022-10-17T16:19:21.524Z,15.73
2022-10-17T16:21:47.952Z,16.45
2022-10-17T16:24:14.390Z,18.23
2022-10-17T16:26:41.059Z,17.95
2022-10-17T16:29:07.656Z,16.03
2022-10-17T16:31:35.591Z,18.15
2022-10-17T16:34:03.916Z,19.38
2022-10-17T16:36:30.519Z,17.30
2022-10-17T16:38:56.921Z,21.25
2022-10-17T16:41:31.423Z,21.13
2022-10-17T16:44:04.670Z,23.45
2022-10-17T16:46:32.638Z,21.75
2022-10-17T16:48:59.524Z,22.60
2022-10-17T16:51:26.025Z,27.23
2022-10-17T16:53:53.124Z,31.53
2022-10-17T16:56:21.725Z,30.88
2022-10-17T16:58:48.653Z,29.48
2022-10-17T17:01:18.080Z,27.55
2022-10-17T17:03:46.071Z,31.80
2022-10-17T17:06:16.205Z,30.20
2022-10-17T17:08:43.392Z,31.08
2022-10-17T17:11:11.660Z,29.15
2022-10-17T17:13:39.001Z,33.08
2022-10-17T17:16:10.895Z,30.58
2022-10-17T17:18:38.242Z,28.60
2022-10-17T17:21:07.308Z,32.22
2022-10-17T17:23:36.130Z,33.05
2022-10-17T17:26:06.019Z,30.10
2022-10-17T17:28:33.411Z,32.55
2022-10-17T17:30:59.831Z,30.23
2022-10-17T17:33:26.686Z,33.03
2022-10-17T17:35:58.821Z,32.17
2022-10-17T17:38:25.687Z,34.17
2022-10-17T17:40:52.217Z,32.55
2022-10-17T17:43:18.915Z,33.43
2022-10-17T17:45:45.955Z,34.08
2022-10-17T17:48:12.532Z,31.15
2022-10-17T17:50:40.969Z,35.70
2022-10-17T17:53:09.153Z,31.30
2022-10-17T17:55:36.170Z,33.90
2022-10-17T17:58:03.037Z,32.15
2022-10-17T18:00:29.522Z,34.58
2022-10-17T18:02:57.058Z,31.92
2022-10-17T18:05:23.671Z,32.50
2022-10-17T18:07:50.066Z,31.90
2022-10-17T18:10:16.594Z,30.13
2022-10-17T18:12:43.612Z,31.52
2022-10-17T18:15:10.754Z,43.38
2022-10-17T18:17:37.385Z,35.42
2022-10-17T18:20:05.483Z,33.70
2022-10-17T18:22:32.386Z,31.15
2022-10-17T18:24:59.119Z,37.58
2022-10-17T18:27:25.565Z,37.15
2022-10-17T18:29:51.978Z,37.58
2022-10-17T18:32:18.419Z,34.63
2022-10-17T18:34:44.838Z,37.72
2022-10-17T18:37:11.265Z,34.22
2022-10-17T18:39:37.710Z,32.17
2022-10-17T18:42:04.252Z,32.85
2022-10-17T18:44:30.611Z,34.77
2022-10-17T18:46:59.876Z,38.65
2022-10-17T18:49:29.510Z,38.40
2022-10-17T18:51:55.936Z,36.53
2022-10-17T18:54:22.336Z,39.80
2022-10-17T18:56:54.464Z,33.53
2022-10-17T18:59:21.776Z,34.67
2022-10-17T19:01:48.823Z,36.70
2022-10-17T19:04:15.721Z,36.67
2022-10-17T19:06:42.878Z,37.67
2022-10-17T19:09:11.697Z,39.43
2022-10-17T19:11:38.714Z,39.03
2022-10-17T19:14:07.653Z,41.63
2022-10-17T19:16:36.159Z,44.58
2022-10-17T19:19:05.885Z,42.13
2022-10-17T19:21:33.514Z,37.07
2022-10-17T19:24:05.461Z,45.28
2022-10-17T19:26:33.891Z,41.90
2022-10-17T19:29:01.205Z,44.13
2022-10-17T19:31:29.956Z,46.53
2022-10-17T19:33:56.770Z,41.23
2022-10-17T19:36:30.459Z,45.60
2022-10-17T19:39:02.605Z,46.92
2022-10-17T19:41:29.049Z,44.42
2022-10-17T19:43:55.507Z,47.13
2022-10-17T19:46:24.416Z,40.13
2022-10-17T19:48:51.652Z,44.13
2022-10-17T19:51:20.576Z,43.40
2022-10-17T19:53:47.853Z,45.10
2022-10-17T19:56:14.444Z,45.58
2022-10-17T19:58:40.828Z,41.00
2022-10-17T20:01:07.375Z,47.63
2022-10-17T20:03:33.801Z,49.22
2022-10-17T20:06:00.267Z,41.53
2022-10-17T20:11:03.109Z,42.63
2022-10-17T20:13:29.491Z,46.40
2022-10-17T20:15:57.154Z,44.55
2022-10-17T20:18:24.791Z,43.75
2022-10-17T20:20:51.336Z,40.90
2022-10-17T20:23:17.886Z,40.33
2022-10-17T20:25:44.417Z,48.88
2022-10-17T20:28:11.426Z,46.72
2022-10-17T20:30:43.693Z,40.10
2022-10-17T20:33:10.104Z,42.05
2022-10-17T20:35:41.433Z,39.37
2022-10-17T20:38:07.900Z,38.80
2022-10-17T20:40:35.571Z,34.47
2022-10-17T20:43:05.649Z,41.97
2022-10-17T20:45:50.341Z,35.95
2022-10-17T20:48:18.522Z,37.87
2022-10-17T20:50:45.012Z,36.33
2022-10-17T20:56:08.457Z,44.63
2022-10-17T20:58:35.410Z,46.58
2022-10-17T21:01:06.679Z,41.73
2022-10-17T21:03:35.803Z,43.78
2022-10-17T21:06:02.337Z,38.38
2022-10-17T21:08:28.697Z,40.78
2022-10-17T21:10:55.096Z,43.05
2022-10-17T21:13:21.512Z,45.63
2022-10-17T21:15:47.870Z,38.55
2022-10-17T21:18:14.279Z,44.42
2022-10-17T21:20:40.661Z,39.72
2022-10-17T21:23:07.061Z,37.10
2022-10-17T21:25:33.463Z,34.50
2022-10-17T21:28:00.044Z,37.83
2022-10-17T21:30:26.504Z,41.72
2022-10-17T21:32:54.257Z,37.97
2022-10-17T21:35:20.904Z,35.15
2022-10-17T21:37:47.330Z,40.73
2022-10-17T21:40:14.039Z,41.97
2022-10-17T21:42:40.523Z,38.75
2022-10-17T21:45:15.247Z,38.25
2022-10-17T21:48:11.126Z,43.92
2022-10-17T21:50:33.030Z,40.77
2022-10-17T21:52:59.415Z,39.97
2022-10-17T21:55:25.803Z,46.60
2022-10-17T21:57:52.234Z,54.30
2022-10-17T22:00:18.745Z,46.65
2022-10-17T22:02:45.130Z,48.13
2022-10-17T22:05:11.513Z,35.78
2022-10-17T22:07:37.901Z,38.75
2022-10-17T22:10:04.883Z,36.85
2022-10-17T22:12:31.572Z,40.40
2022-10-17T22:14:58.092Z,39.97
2022-10-17T22:17:24.484Z,34.65
2022-10-17T22:19:50.869Z,47.75
2022-10-17T22:22:17.304Z,60.92
2022-10-17T22:24:43.733Z,65.38
2022-10-17T22:27:10.130Z,47.83
2022-10-17T22:29:36.539Z,52.17
2022-10-17T22:32:02.998Z,64.43
2022-10-17T22:34:29.406Z,60.97
2022-10-17T22:36:55.814Z,60.35
2022-10-17T22:39:22.251Z,65.93
2022-10-17T22:41:48.647Z,64.47
2022-10-17T22:44:15.009Z,60.33
2022-10-17T22:46:41.391Z,56.83
2022-10-17T22:49:07.785Z,54.88
2022-10-17T22:51:34.240Z,59.40
2022-10-17T22:54:00.766Z,76.60
2022-10-17T22:56:27.206Z,71.30
2022-10-17T22:58:53.689Z,65.43
2022-10-17T23:01:22.757Z,65.15
2022-10-17T23:03:49.819Z,46.13
2022-10-17T23:06:17.254Z,48.50
2022-10-17T23:08:43.721Z,60.63
2022-10-17T23:11:10.600Z,63.50
2022-10-17T23:13:37.469Z,57.03
2022-10-17T23:16:04.210Z,56.80
2022-10-17T23:20:57.137Z,71.78
2022-10-17T23:23:23.543Z,49.15
2022-10-17T23:25:50.854Z,42.20
2022-10-17T23:28:17.614Z,43.47
2022-10-17T23:30:44.228Z,36.17
2022-10-17T23:33:12.135Z,59.38
2022-10-17T23:35:38.641Z,60.10
2022-10-17T23:38:05.047Z,62.00
2022-10-17T23:40:31.425Z,50.23
2022-10-17T23:42:57.846Z,44.60
2022-10-17T23:45:24.289Z,49.20
2022-10-17T23:47:50.697Z,33.33
2022-10-17T23:50:17.168Z,38.22
2022-10-17T23:52:43.671Z,41.20
2022-10-17T23:55:10.492Z,43.88
2022-10-17T23:57:36.886Z,49.83
